Terminal Aerodrome Forecast
Issued by NWS Twin Cities, MN

Home | Current Version | Previous Version | Text Only | Print | Product List | Glossary Off
Versions: 1 2 3 4 5 6 7 8 9 10 11 12 13 14 15 16 17 18 19 20 21 22 23 24 25

000
FTUS43 KMPX 301120
TAFMSP
TAF
KMSP 301120Z 3012/0118 05008KT P6SM FEW250
     FM301500 06018G25KT P6SM SCT050
     FM010100 04014G22KT P6SM SCT050 BKN110
     FM010900 02010KT P6SM SCT250=

USA.gov is the U.S. government's official web portal to all federal, state and local government web resources and services.